Butternuts, New York
Current Conditions -  °F | °C
As of 3:53 PM on Monday 22 Dec 2014 (Local Time) from KBGM Reporting Station
Overcast Overcast  
Wind Chill: 27°   Ceiling: 2200
Heat Index: 35°   Visibility: 10mi
Dew Point: 28°   Wind: 12mph
Humidity: 76%   Direction: 150°SSE
Pressure: 30.14"   Gusts: NA
Location:  42.4446°N, 75.3595°W
Report Text: KBGM 222053Z 15010KT 10SM OVC022 02/M02 A3014 RMK AO2 SLP226 T00171022 55004
Loading
Personal Weather Stations






























Interactive Weather Map New forecast layout! Learn more

10-Day Weather Forecast

Advertisements
Track Severe Weather on mobile